Time;durP1;ratioP1;P1;durP2;ratioP2;P2;SDS_P1;SDS_P2;PMS_P1;PMS_P2;Temp;Humidity;BMP_temperature;BMP_pressure;BME280_temperature;BME280_humidity;BME280_pressure;Samples;Min_cycle;Max_cycle;Signal;HPM_P1;HPM_P2
2022/01/04 00:02:01;;;;;;;;;;;22.80;36.30;;;;;;5123678;28;19923;-64
2022/01/04 00:04:27;;;;;;;;;;;23.10;35.80;;;;;;5123614;28;19923;-58
2022/01/04 00:06:54;;;;;;;;;;;22.80;36.20;;;;;;5128802;28;20294;-64
2022/01/04 00:09:21;;;;;;;;;;;23.10;35.70;;;;;;5123495;28;19946;-60
2022/01/04 00:14:15;;;;;;;;;;;22.90;36.20;;;;;;5128685;28;19949;-59
2022/01/04 00:16:41;;;;;;;;;;;22.80;36.50;;;;;;5123136;28;20375;-64
2022/01/04 00:19:07;;;;;;;;;;;23.00;36.20;;;;;;5129110;28;19923;-60
2022/01/04 00:21:33;;;;;;;;;;;22.80;36.60;;;;;;5104887;28;19923;-56
2022/01/04 00:23:58;;;;;;;;;;;23.00;36.10;;;;;;5123189;28;19928;-61
2022/01/04 00:26:24;;;;;;;;;;;22.80;36.60;;;;;;5128670;28;20021;-62
2022/01/04 00:28:50;;;;;;;;;;;23.20;36.10;;;;;;5104832;28;19927;-59
2022/01/04 00:31:16;;;;;;;;;;;22.70;37.10;;;;;;5104717;28;19927;-58
2022/01/04 00:33:41;;;;;;;;;;;22.80;36.90;;;;;;5109677;28;20294;-57
2022/01/04 00:36:07;;;;;;;;;;;23.00;36.60;;;;;;5123497;28;19988;-63
2022/01/04 00:38:33;;;;;;;;;;;23.00;36.70;;;;;;5128757;28;19939;-60
2022/01/04 00:40:59;;;;;;;;;;;22.90;36.60;;;;;;5123206;28;19934;-60
2022/01/04 00:43:25;;;;;;;;;;;23.10;36.40;;;;;;5123031;28;20298;-63
2022/01/04 00:45:52;;;;;;;;;;;22.80;36.80;;;;;;5109893;28;19935;-58
2022/01/04 00:50:44;;;;;;;;;;;23.00;36.40;;;;;;5122686;28;19927;-57
2022/01/04 00:53:10;;;;;;;;;;;22.70;37.10;;;;;;5128000;28;20463;-62
2022/01/04 00:55:35;;;;;;;;;;;23.00;36.60;;;;;;5123011;28;20030;-59
2022/01/04 00:58:01;;;;;;;;;;;22.80;37.20;;;;;;5126376;28;19987;-61
2022/01/04 01:00:27;;;;;;;;;;;23.00;36.70;;;;;;5125184;28;19923;-59
2022/01/04 01:02:53;;;;;;;;;;;22.90;36.80;;;;;;5122518;28;20063;-60
2022/01/04 01:05:19;;;;;;;;;;;22.90;36.90;;;;;;5127747;28;19924;-61
2022/01/04 01:07:44;;;;;;;;;;;22.90;36.90;;;;;;5121236;27;19927;-58
2022/01/04 01:12:55;;;;;;;;;;;23.00;36.80;;;;;;5127627;28;20293;-63
2022/01/04 01:15:20;;;;;;;;;;;23.00;36.80;;;;;;5122962;28;19926;-62
2022/01/04 01:17:46;;;;;;;;;;;22.80;37.10;;;;;;5122514;28;19996;-62
2022/01/04 01:20:13;;;;;;;;;;;23.00;36.90;;;;;;5127765;28;19931;-61
2022/01/04 01:22:39;;;;;;;;;;;23.10;36.80;;;;;;5122138;28;19924;-60
2022/01/04 01:25:05;;;;;;;;;;;22.90;37.10;;;;;;5126272;28;20347;-62
2022/01/04 01:27:31;;;;;;;;;;;23.00;37.00;;;;;;5123698;28;19927;-60
2022/01/04 01:29:57;;;;;;;;;;;23.00;37.10;;;;;;5122086;28;19932;-60
2022/01/04 01:32:23;;;;;;;;;;;22.60;37.90;;;;;;5127977;28;19924;-60
2022/01/04 01:34:48;;;;;;;;;;;22.90;37.40;;;;;;5122342;28;19977;-62
2022/01/04 01:37:14;;;;;;;;;;;22.90;37.30;;;;;;5122359;28;19981;-55
2022/01/04 01:39:40;;;;;;;;;;;22.90;37.40;;;;;;5127383;28;19923;-63
2022/01/04 01:42:06;;;;;;;;;;;22.70;37.80;;;;;;5121926;28;20439;-58
2022/01/04 01:44:32;;;;;;;;;;;22.90;37.70;;;;;;5105604;28;19950;-63
2022/01/04 01:46:58;;;;;;;;;;;22.60;38.10;;;;;;5125275;28;19928;-59
2022/01/04 01:49:24;;;;;;;;;;;22.80;37.80;;;;;;5102728;28;19938;-58
2022/01/04 01:51:49;;;;;;;;;;;23.10;37.40;;;;;;5127556;28;19927;-58
2022/01/04 01:54:15;;;;;;;;;;;22.80;38.10;;;;;;5121973;28;20334;-60
2022/01/04 01:56:41;;;;;;;;;;;22.90;37.70;;;;;;5121770;28;20022;-54
2022/01/04 01:59:07;;;;;;;;;;;22.70;38.10;;;;;;5127329;28;19927;-63
2022/01/04 02:01:33;;;;;;;;;;;23.00;37.60;;;;;;5121716;28;19934;-57
2022/01/04 02:03:59;;;;;;;;;;;22.70;38.20;;;;;;5121108;28;19981;-55
2022/01/04 02:06:29;;;;;;;;;;;23.00;37.70;;;;;;5107263;28;19923;-57
2022/01/04 02:08:58;;;;;;;;;;;23.00;37.70;;;;;;5103428;28;19924;-61
2022/01/04 02:11:24;;;;;;;;;;;23.00;37.80;;;;;;5127223;28;19928;-57
2022/01/04 02:13:50;;;;;;;;;;;22.60;38.40;;;;;;5103139;28;19923;-60
2022/01/04 02:16:16;;;;;;;;;;;22.90;37.90;;;;;;5121479;28;19923;-59
2022/01/04 02:18:42;;;;;;;;;;;22.80;37.90;;;;;;5126460;27;20432;-60
2022/01/04 02:21:07;;;;;;;;;;;23.00;37.70;;;;;;5121027;28;19924;-63
2022/01/04 02:23:33;;;;;;;;;;;22.90;37.70;;;;;;5120789;28;20182;-55
2022/01/04 02:26:00;;;;;;;;;;;22.60;38.60;;;;;;5126554;28;19931;-59
2022/01/04 02:28:26;;;;;;;;;;;22.90;37.90;;;;;;5103206;28;19927;-59
2022/01/04 02:30:51;;;;;;;;;;;22.60;38.60;;;;;;5126891;28;20000;-59
2022/01/04 02:33:17;;;;;;;;;;;22.80;38.20;;;;;;5121795;28;19946;-64
2022/01/04 02:35:43;;;;;;;;;;;22.90;37.90;;;;;;5121307;28;19923;-58
2022/01/04 02:38:10;;;;;;;;;;;22.70;38.30;;;;;;5126372;28;19937;-59
2022/01/04 02:40:36;;;;;;;;;;;22.90;37.80;;;;;;5121137;28;19951;-57
2022/01/04 02:43:02;;;;;;;;;;;22.90;37.60;;;;;;5120561;28;19927;-58
2022/01/04 02:45:27;;;;;;;;;;;22.90;37.70;;;;;;5126567;28;20386;-60
2022/01/04 02:47:53;;;;;;;;;;;22.70;38.10;;;;;;5121193;28;19950;-60
2022/01/04 02:50:19;;;;;;;;;;;22.80;37.90;;;;;;5123894;28;19989;-59
2022/01/04 02:52:45;;;;;;;;;;;22.70;38.00;;;;;;5123839;28;19931;-58
2022/01/04 02:55:11;;;;;;;;;;;22.90;37.70;;;;;;5101137;28;19924;-60
2022/01/04 02:57:37;;;;;;;;;;;22.90;37.70;;;;;;5126074;28;19930;-56
2022/01/04 03:00:04;;;;;;;;;;;22.70;38.00;;;;;;5120241;28;19963;-57
2022/01/04 03:02:29;;;;;;;;;;;22.90;37.60;;;;;;5102280;28;19923;-56
2022/01/04 03:04:55;;;;;;;;;;;22.90;37.90;;;;;;5126408;28;19935;-58
2022/01/04 03:07:21;;;;;;;;;;;23.10;37.40;;;;;;5121029;28;20343;-61
2022/01/04 03:09:47;;;;;;;;;;;22.90;37.70;;;;;;5120670;28;20443;-57
2022/01/04 03:12:13;;;;;;;;;;;22.90;37.60;;;;;;5126083;28;19930;-57
2022/01/04 03:14:38;;;;;;;;;;;22.80;37.60;;;;;;5120413;28;19924;-59
2022/01/04 03:17:04;;;;;;;;;;;22.80;37.70;;;;;;5125735;28;19924;-57
2022/01/04 03:19:30;;;;;;;;;;;23.10;37.30;;;;;;5120199;28;19942;-62
2022/01/04 03:21:56;;;;;;;;;;;22.80;37.80;;;;;;5120564;28;19927;-57
2022/01/04 03:24:22;;;;;;;;;;;22.80;37.90;;;;;;5125826;28;20389;-59
2022/01/04 03:26:47;;;;;;;;;;;23.00;37.60;;;;;;5102121;28;19945;-59
2022/01/04 03:29:13;;;;;;;;;;;23.10;37.50;;;;;;5120631;28;20256;-65
2022/01/04 03:31:39;;;;;;;;;;;23.00;37.30;;;;;;5124922;27;19923;-60
2022/01/04 03:34:05;;;;;;;;;;;22.60;38.20;;;;;;5120161;28;20381;-60
2022/01/04 03:36:31;;;;;;;;;;;22.90;37.60;;;;;;5125506;28;19923;-60
2022/01/04 03:38:57;;;;;;;;;;;22.90;37.50;;;;;;5120119;28;20481;-57
2022/01/04 03:41:23;;;;;;;;;;;23.10;37.50;;;;;;5120431;28;19984;-60
2022/01/04 03:43:49;;;;;;;;;;;23.00;37.50;;;;;;5125639;28;19933;-60
2022/01/04 03:46:15;;;;;;;;;;;22.70;38.30;;;;;;5120466;28;19927;-59
2022/01/04 03:48:41;;;;;;;;;;;23.00;37.80;;;;;;5120086;28;19923;-59
2022/01/04 03:51:06;;;;;;;;;;;22.80;37.90;;;;;;5125225;28;19923;-56
2022/01/04 03:53:32;;;;;;;;;;;23.00;37.70;;;;;;5119904;28;19923;-63
2022/01/04 03:55:58;;;;;;;;;;;22.70;38.10;;;;;;5104758;28;19980;-58
2022/01/04 03:58:24;;;;;;;;;;;23.00;37.50;;;;;;5120087;28;20018;-62
2022/01/04 04:00:50;;;;;;;;;;;22.90;37.60;;;;;;5120241;28;20362;-62
2022/01/04 04:03:16;;;;;;;;;;;22.80;37.90;;;;;;5125502;28;20449;-62
2022/01/04 04:05:41;;;;;;;;;;;23.10;37.30;;;;;;5120059;28;19963;-60
2022/01/04 04:08:07;;;;;;;;;;;22.80;37.60;;;;;;5120257;28;19924;-60
2022/01/04 04:10:33;;;;;;;;;;;23.10;37.10;;;;;;5125377;28;19931;-58
2022/01/04 04:12:59;;;;;;;;;;;22.80;37.60;;;;;;5099280;28;19968;-62
2022/01/04 04:15:25;;;;;;;;;;;23.00;37.20;;;;;;5123421;28;19980;-60
2022/01/04 04:17:50;;;;;;;;;;;22.80;37.60;;;;;;5121818;28;19923;-62
2022/01/04 04:20:16;;;;;;;;;;;23.10;37.10;;;;;;5120280;28;19927;-61
2022/01/04 04:22:42;;;;;;;;;;;22.80;37.50;;;;;;5125282;28;19973;-64
2022/01/04 04:25:08;;;;;;;;;;;23.10;37.10;;;;;;5119865;28;19931;-62
2022/01/04 04:27:33;;;;;;;;;;;22.80;37.50;;;;;;5119574;28;19930;-63
2022/01/04 04:29:59;;;;;;;;;;;23.00;37.20;;;;;;5124783;28;19967;-63
2022/01/04 04:32:25;;;;;;;;;;;22.80;37.60;;;;;;5119137;28;19976;-61
2022/01/04 04:34:51;;;;;;;;;;;23.00;37.50;;;;;;5121462;28;20450;-59
2022/01/04 04:37:17;;;;;;;;;;;23.20;37.10;;;;;;5103415;28;20493;-60
2022/01/04 04:39:43;;;;;;;;;;;22.90;37.70;;;;;;5101229;28;19924;-62
2022/01/04 04:42:08;;;;;;;;;;;23.20;37.40;;;;;;5125276;27;19927;-61
2022/01/04 04:44:34;;;;;;;;;;;22.80;38.10;;;;;;5122953;28;19930;-61
2022/01/04 04:47:00;;;;;;;;;;;23.20;37.60;;;;;;5122698;28;20036;-55
2022/01/04 04:49:26;;;;;;;;;;;23.00;38.00;;;;;;5128143;28;20263;-58
2022/01/04 04:51:51;;;;;;;;;;;22.90;38.40;;;;;;5122107;28;19972;-59
2022/01/04 04:54:17;;;;;;;;;;;22.90;38.30;;;;;;5123325;28;19927;-59
2022/01/04 04:56:43;;;;;;;;;;;23.00;38.20;;;;;;5128393;28;20363;-58
2022/01/04 04:59:09;;;;;;;;;;;22.90;38.40;;;;;;5123204;28;19931;-61
2022/01/04 05:01:35;;;;;;;;;;;23.10;38.00;;;;;;5128397;28;19923;-58
2022/01/04 05:04:01;;;;;;;;;;;22.80;38.50;;;;;;5122539;28;19928;-65
2022/01/04 05:06:27;;;;;;;;;;;23.00;38.10;;;;;;5122204;28;20363;-62
2022/01/04 05:08:52;;;;;;;;;;;23.00;38.10;;;;;;5127701;28;19924;-63
2022/01/04 05:11:18;;;;;;;;;;;23.00;38.10;;;;;;5121847;28;19927;-58
2022/01/04 05:13:44;;;;;;;;;;;22.90;38.40;;;;;;5122944;28;19931;-65
2022/01/04 05:16:10;;;;;;;;;;;23.10;38.10;;;;;;5128035;28;19930;-59
2022/01/04 05:18:35;;;;;;;;;;;23.00;38.40;;;;;;5122819;28;20291;-63
2022/01/04 05:21:01;;;;;;;;;;;23.20;38.00;;;;;;5127592;28;20264;-60
2022/01/04 05:23:27;;;;;;;;;;;22.80;38.80;;;;;;5122476;28;19927;-62
2022/01/04 05:25:53;;;;;;;;;;;23.20;38.10;;;;;;5122084;28;19958;-61
2022/01/04 05:28:19;;;;;;;;;;;22.80;38.90;;;;;;5127504;28;20366;-65
2022/01/04 05:30:44;;;;;;;;;;;23.00;38.60;;;;;;5122172;28;20068;-61
2022/01/04 05:33:10;;;;;;;;;;;22.60;39.80;;;;;;5122618;28;20320;-60
2022/01/04 05:35:36;;;;;;;;;;;22.90;39.20;;;;;;5127806;28;20389;-62
2022/01/04 05:38:02;;;;;;;;;;;22.70;39.60;;;;;;5122176;28;19942;-56
2022/01/04 05:40:27;;;;;;;;;;;23.00;39.00;;;;;;5108125;28;19924;-61
2022/01/04 05:42:53;;;;;;;;;;;22.70;39.70;;;;;;5121932;28;20403;-60
2022/01/04 05:45:19;;;;;;;;;;;22.80;39.70;;;;;;5121908;28;19958;-64
2022/01/04 05:47:45;;;;;;;;;;;22.90;39.60;;;;;;5127005;28;20426;-62
2022/01/04 05:50:11;;;;;;;;;;;22.80;40.00;;;;;;5122265;28;20020;-63
2022/01/04 05:52:36;;;;;;;;;;;23.10;39.50;;;;;;5122197;28;19923;-60
2022/01/04 05:55:03;;;;;;;;;;;22.80;40.00;;;;;;5126473;27;19972;-63
2022/01/04 05:57:29;;;;;;;;;;;23.10;39.30;;;;;;5121780;28;19948;-60
2022/01/04 05:59:54;;;;;;;;;;;22.70;40.20;;;;;;5126483;28;20410;-61
2022/01/04 06:02:20;;;;;;;;;;;23.00;39.60;;;;;;5122476;28;20483;-60
2022/01/04 06:04:46;;;;;;;;;;;22.80;40.00;;;;;;5121401;28;19923;-63
2022/01/04 06:07:11;;;;;;;;;;;23.00;39.60;;;;;;5108694;28;19928;-57
2022/01/04 06:09:44;;;;;;;;;;;22.90;39.80;;;;;;5103572;28;19928;-62
2022/01/04 06:15:09;;;;;;;;;;;22.90;39.90;;;;;;5103114;28;19923;-59
2022/01/04 06:17:35;;;;;;;;;;;22.90;39.90;;;;;;5121555;28;19923;-60
2022/01/04 06:20:03;;;;;;;;;;;22.90;40.10;;;;;;5102828;28;20014;-61
2022/01/04 06:22:29;;;;;;;;;;;23.00;39.90;;;;;;5126609;28;19927;-59
2022/01/04 06:24:55;;;;;;;;;;;22.90;40.20;;;;;;5120648;28;19950;-58
2022/01/04 06:27:21;;;;;;;;;;;22.70;41.10;;;;;;5121852;28;19950;-60
2022/01/04 06:29:47;;;;;;;;;;;22.90;40.60;;;;;;5126757;28;19930;-57
2022/01/04 06:32:13;;;;;;;;;;;22.80;40.90;;;;;;5121329;28;19935;-61
2022/01/04 06:34:39;;;;;;;;;;;23.10;40.40;;;;;;5126809;28;19928;-61
2022/01/04 06:37:05;;;;;;;;;;;22.80;40.90;;;;;;5121176;28;20080;-62
2022/01/04 06:39:31;;;;;;;;;;;23.00;40.50;;;;;;5121130;28;19946;-61
2022/01/04 06:41:56;;;;;;;;;;;22.90;40.80;;;;;;5126209;28;19939;-61
2022/01/04 06:44:22;;;;;;;;;;;23.00;40.70;;;;;;5121111;28;19923;-56
2022/01/04 06:46:48;;;;;;;;;;;22.60;41.50;;;;;;5121460;28;20123;-59
2022/01/04 06:49:17;;;;;;;;;;;22.80;41.20;;;;;;5126552;28;19950;-61
2022/01/04 06:51:43;;;;;;;;;;;23.00;40.70;;;;;;5121111;28;19924;-59
2022/01/04 06:54:09;;;;;;;;;;;22.80;41.40;;;;;;5124369;28;19978;-60
2022/01/04 06:56:35;;;;;;;;;;;23.00;40.80;;;;;;5123340;28;19929;-59
2022/01/04 06:59:01;;;;;;;;;;;22.60;41.80;;;;;;5120390;28;19929;-58
2022/01/04 07:01:27;;;;;;;;;;;22.80;41.30;;;;;;5125654;28;19971;-58
2022/01/04 07:03:52;;;;;;;;;;;23.10;40.80;;;;;;5120706;28;19933;-53
2022/01/04 07:06:18;;;;;;;;;;;22.80;41.20;;;;;;5120699;27;20283;-62
2022/01/04 07:08:44;;;;;;;;;;;23.00;40.90;;;;;;5125879;28;20394;-58
2022/01/04 07:11:10;;;;;;;;;;;22.80;41.30;;;;;;5120383;28;20010;-64
2022/01/04 07:13:36;;;;;;;;;;;23.00;40.90;;;;;;5121745;28;20340;-58
2022/01/04 07:16:01;;;;;;;;;;;22.60;42.00;;;;;;5124956;28;19924;-59
2022/01/04 07:18:27;;;;;;;;;;;22.90;41.40;;;;;;5120292;28;19927;-60
2022/01/04 07:20:53;;;;;;;;;;;22.80;41.60;;;;;;5125208;28;19928;-59
2022/01/04 07:23:19;;;;;;;;;;;22.90;41.50;;;;;;5120782;28;19930;-63
2022/01/04 07:25:45;;;;;;;;;;;22.80;41.90;;;;;;5120484;28;19927;-59
2022/01/04 07:28:10;;;;;;;;;;;22.90;41.60;;;;;;5126011;28;20387;-66
2022/01/04 07:30:36;;;;;;;;;;;22.90;41.50;;;;;;5120607;28;20394;-58
2022/01/04 07:33:02;;;;;;;;;;;22.70;42.20;;;;;;5120307;28;19924;-61
2022/01/04 07:35:28;;;;;;;;;;;23.00;41.50;;;;;;5125481;28;19931;-61
2022/01/04 07:37:53;;;;;;;;;;;22.60;42.40;;;;;;5119575;28;19927;-60
2022/01/04 07:40:20;;;;;;;;;;;22.90;41.70;;;;;;5125357;28;19963;-61
2022/01/04 07:42:46;;;;;;;;;;;23.00;41.40;;;;;;5120191;28;19983;-58
2022/01/04 07:45:12;;;;;;;;;;;22.80;42.10;;;;;;5120260;28;19927;-61
2022/01/04 07:47:38;;;;;;;;;;;22.90;41.60;;;;;;5125864;28;20378;-59
2022/01/04 07:50:04;;;;;;;;;;;23.00;41.80;;;;;;5120323;28;19924;-63
2022/01/04 07:52:30;;;;;;;;;;;22.90;41.70;;;;;;5119759;28;19932;-61
2022/01/04 07:54:55;;;;;;;;;;;22.80;42.10;;;;;;5125544;28;20026;-62
2022/01/04 07:57:21;;;;;;;;;;;23.10;41.50;;;;;;5119802;28;19927;-61
2022/01/04 07:59:47;;;;;;;;;;;22.80;42.20;;;;;;5125937;28;19924;-62
2022/01/04 08:02:13;;;;;;;;;;;23.10;41.50;;;;;;5120387;28;19930;-56
2022/01/04 08:04:38;;;;;;;;;;;22.90;41.80;;;;;;5120348;28;19962;-62
2022/01/04 08:07:04;;;;;;;;;;;23.20;41.10;;;;;;5125262;28;19932;-58
2022/01/04 08:09:32;;;;;;;;;;;22.80;41.90;;;;;;5119851;28;19938;-61
2022/01/04 08:11:58;;;;;;;;;;;23.20;41.20;;;;;;5119739;28;20083;-59
2022/01/04 08:14:24;;;;;;;;;;;22.80;42.20;;;;;;5125006;28;19924;-63
2022/01/04 08:16:49;;;;;;;;;;;23.20;41.30;;;;;;5119845;27;19927;-61
2022/01/04 08:19:15;;;;;;;;;;;22.80;41.90;;;;;;5128424;28;20367;-61
2022/01/04 08:21:41;;;;;;;;;;;23.20;41.30;;;;;;5124596;28;19931;-59
2022/01/04 08:24:07;;;;;;;;;;;22.90;41.90;;;;;;5123472;28;19928;-61
2022/01/04 08:26:32;;;;;;;;;;;23.20;41.30;;;;;;5128665;28;19969;-60
2022/01/04 08:28:58;;;;;;;;;;;22.90;41.80;;;;;;5122891;28;19924;-62
2022/01/04 08:31:24;;;;;;;;;;;23.00;41.70;;;;;;5104807;28;19923;-63
2022/01/04 08:33:51;;;;;;;;;;;23.00;41.80;;;;;;5127900;28;19984;-57
2022/01/04 08:36:16;;;;;;;;;;;22.90;42.10;;;;;;5123220;28;19927;-62
2022/01/04 08:38:43;;;;;;;;;;;23.30;41.30;;;;;;5125648;28;19927;-60
2022/01/04 08:41:09;;;;;;;;;;;22.80;42.10;;;;;;5127053;28;19934;-62
2022/01/04 08:43:35;;;;;;;;;;;23.30;41.30;;;;;;5123083;28;20251;-61
2022/01/04 08:46:01;;;;;;;;;;;23.00;41.60;;;;;;5128343;28;19984;-56
2022/01/04 08:48:26;;;;;;;;;;;23.10;41.50;;;;;;5122985;28;19923;-62
2022/01/04 08:50:52;;;;;;;;;;;23.20;41.40;;;;;;5122811;28;20015;-58
2022/01/04 08:53:18;;;;;;;;;;;22.90;42.00;;;;;;5127844;28;20000;-60
2022/01/04 08:55:45;;;;;;;;;;;23.30;41.10;;;;;;5123273;28;19927;-61
2022/01/04 08:58:11;;;;;;;;;;;22.80;42.30;;;;;;5104502;28;19927;-59
2022/01/04 09:00:36;;;;;;;;;;;23.20;41.50;;;;;;5128326;28;19989;-60
2022/01/04 09:03:03;;;;;;;;;;;22.90;42.00;;;;;;5122690;28;19931;-62
2022/01/04 09:05:29;;;;;;;;;;;23.30;41.20;;;;;;5127883;28;19927;-58
2022/01/04 09:07:54;;;;;;;;;;;22.90;41.90;;;;;;5122512;28;19961;-61
2022/01/04 09:10:20;;;;;;;;;;;23.20;41.30;;;;;;5122250;28;20013;-59
2022/01/04 09:13:01;;;;;;;;;;;22.80;42.10;;;;;;5127836;28;19924;-63
2022/01/04 09:20:40;;;;;;;;;;;23.00;41.60;;;;;;5127878;28;19931;-62
2022/01/04 09:23:06;;;;;;;;;;;22.90;41.80;;;;;;5122215;28;19990;-62
2022/01/04 09:25:32;;;;;;;;;;;23.20;41.30;;;;;;5122661;28;20190;-60
2022/01/04 09:27:57;;;;;;;;;;;22.80;42.00;;;;;;5127314;28;19924;-61
2022/01/04 09:30:23;;;;;;;;;;;23.10;41.40;;;;;;5120522;28;19953;-61
2022/01/04 09:32:49;;;;;;;;;;;22.90;41.80;;;;;;5126808;28;19931;-61
2022/01/04 09:35:15;;;;;;;;;;;23.30;41.20;;;;;;5123662;28;19984;-63
2022/01/04 09:37:41;;;;;;;;;;;23.00;41.70;;;;;;5122019;28;19978;-62
2022/01/04 09:40:07;;;;;;;;;;;22.90;41.90;;;;;;5127389;28;19923;-58
2022/01/04 09:42:33;;;;;;;;;;;23.00;41.70;;;;;;5122105;28;20034;-58
2022/01/04 09:44:59;;;;;;;;;;;22.90;42.00;;;;;;5121955;28;20383;-62
2022/01/04 09:47:25;;;;;;;;;;;23.00;42.00;;;;;;5126888;28;19957;-60
2022/01/04 09:49:51;;;;;;;;;;;22.90;42.10;;;;;;5121774;28;19923;-60
2022/01/04 09:52:19;;;;;;;;;;;23.20;41.90;;;;;;5123722;28;19927;-61
2022/01/04 09:54:45;;;;;;;;;;;23.00;42.30;;;;;;5108930;28;20392;-60
2022/01/04 09:57:13;;;;;;;;;;;23.10;41.80;;;;;;5103448;28;19923;-61
2022/01/04 09:59:39;;;;;;;;;;;22.90;42.30;;;;;;5127180;28;19923;-62
2022/01/04 10:02:15;;;;;;;;;;;23.10;41.80;;;;;;5121696;28;19923;-55
2022/01/04 10:04:41;;;;;;;;;;;22.90;42.30;;;;;;5121484;28;19927;-58
2022/01/04 10:07:07;;;;;;;;;;;23.00;41.90;;;;;;5126744;28;20011;-62
2022/01/04 10:09:45;;;;;;;;;;;23.20;41.60;;;;;;5118041;28;19972;-59
2022/01/04 10:12:11;;;;;;;;;;;23.00;42.00;;;;;;5121784;28;20064;-61
2022/01/04 10:14:40;;;;;;;;;;;23.10;42.00;;;;;;5127410;28;19967;-59
2022/01/04 10:17:14;;;;;;;;;;;22.90;42.20;;;;;;5117951;28;19928;-63
2022/01/04 10:19:43;;;;;;;;;;;23.10;41.90;;;;;;5121485;28;19946;-57
2022/01/04 10:22:31;;;;;;;;;;;23.00;42.10;;;;;;5126642;28;19939;-58
2022/01/04 10:25:03;;;;;;;;;;;23.00;42.00;;;;;;5120896;28;19928;-59
2022/01/04 10:27:30;;;;;;;;;;;22.90;42.40;;;;;;5121762;28;20312;-63
2022/01/04 10:30:22;;;;;;;;;;;23.10;42.10;;;;;;5126964;28;19924;-58
2022/01/04 10:32:49;;;;;;;;;;;23.00;41.90;;;;;;5116644;28;20034;-63
2022/01/04 10:35:21;;;;;;;;;;;23.20;41.50;;;;;;5121156;28;20180;-65
2022/01/04 10:37:46;;;;;;;;;;;22.90;42.00;;;;;;5126542;28;19958;-61
2022/01/04 10:40:12;;;;;;;;;;;22.80;42.30;;;;;;5101127;28;19969;-65
2022/01/04 10:42:38;;;;;;;;;;;23.20;41.60;;;;;;5121577;28;19973;-59
2022/01/04 10:45:23;;;;;;;;;;;22.80;42.70;;;;;;5125292;28;20310;-63
2022/01/04 10:47:48;;;;;;;;;;;23.10;41.90;;;;;;5121280;28;19923;-61
2022/01/04 10:50:30;;;;;;;;;;;22.80;42.50;;;;;;5125356;28;20299;-61
2022/01/04 10:52:57;;;;;;;;;;;23.20;41.70;;;;;;5126430;28;20409;-58
2022/01/04 10:55:22;;;;;;;;;;;22.80;42.20;;;;;;5116925;28;19928;-62
2022/01/04 10:57:49;;;;;;;;;;;23.10;41.60;;;;;;5126272;28;20010;-60
2022/01/04 11:00:15;;;;;;;;;;;22.70;42.50;;;;;;5120633;28;20412;-63
2022/01/04 11:02:41;;;;;;;;;;;23.10;41.80;;;;;;5120578;28;19936;-61
2022/01/04 11:05:10;;;;;;;;;;;23.00;42.00;;;;;;5126205;28;20018;-60
2022/01/04 11:07:36;;;;;;;;;;;22.90;42.00;;;;;;5120987;28;20248;-63
2022/01/04 11:10:02;;;;;;;;;;;22.90;42.10;;;;;;5101745;28;20029;-60
2022/01/04 11:12:28;;;;;;;;;;;22.80;42.50;;;;;;5125998;28;19938;-63
2022/01/04 11:14:53;;;;;;;;;;;23.20;41.60;;;;;;5102061;28;20018;-59
2022/01/04 11:17:19;;;;;;;;;;;23.00;41.90;;;;;;5125185;28;19931;-60
2022/01/04 11:19:45;;;;;;;;;;;23.20;41.40;;;;;;5120990;28;19931;-60
2022/01/04 11:22:11;;;;;;;;;;;22.90;42.00;;;;;;5120521;28;19930;-63
2022/01/04 11:24:36;;;;;;;;;;;23.30;41.20;;;;;;5126020;28;20370;-54
2022/01/04 11:27:02;;;;;;;;;;;23.00;41.30;;;;;;5102262;28;20315;-63
2022/01/04 11:29:28;;;;;;;;;;;23.10;41.20;;;;;;5120552;28;20095;-55
2022/01/04 11:31:55;;;;;;;;;;;22.90;41.40;;;;;;5125831;28;20394;-60
2022/01/04 11:34:36;;;;;;;;;;;23.00;41.40;;;;;;5120368;28;19999;-58
2022/01/04 11:37:01;;;;;;;;;;;23.00;41.50;;;;;;5120221;28;20179;-61
2022/01/04 11:39:28;;;;;;;;;;;22.80;41.80;;;;;;5125064;28;19924;-60
2022/01/04 11:41:55;;;;;;;;;;;23.30;41.10;;;;;;5120678;28;19927;-62
2022/01/04 11:44:22;;;;;;;;;;;23.00;41.90;;;;;;5125536;28;19952;-60
2022/01/04 11:47:04;;;;;;;;;;;23.10;41.50;;;;;;5120706;28;19928;-58
2022/01/04 11:49:30;;;;;;;;;;;22.80;42.50;;;;;;5120304;28;19983;-60
2022/01/04 11:51:56;;;;;;;;;;;23.30;41.40;;;;;;5124573;27;19923;-56
2022/01/04 11:54:22;;;;;;;;;;;22.90;42.00;;;;;;5120108;28;19988;-56
2022/01/04 11:57:02;;;;;;;;;;;23.00;41.90;;;;;;5119912;28;19930;-62
2022/01/04 11:59:54;;;;;;;;;;;23.20;41.60;;;;;;5125477;28;19930;-62
2022/01/04 12:02:24;;;;;;;;;;;23.00;42.00;;;;;;5116373;28;19927;-60
2022/01/04 12:04:54;;;;;;;;;;;23.10;41.70;;;;;;5120047;28;19937;-55
2022/01/04 12:07:38;;;;;;;;;;;23.00;42.00;;;;;;5125550;28;20264;-60
2022/01/04 12:10:22;;;;;;;;;;;22.90;42.30;;;;;;5120715;28;19927;-63
2022/01/04 12:12:54;;;;;;;;;;;23.10;42.10;;;;;;5119848;28;19968;-60
2022/01/04 12:15:32;;;;;;;;;;;22.90;42.20;;;;;;5124832;28;19927;-57
2022/01/04 12:17:58;;;;;;;;;;;22.90;42.30;;;;;;5124671;28;20064;-62
2022/01/04 12:20:42;;;;;;;;;;;23.00;42.20;;;;;;5120157;28;19924;-60
2022/01/04 12:23:26;;;;;;;;;;;23.00;42.30;;;;;;5124545;28;20272;-61
2022/01/04 12:26:04;;;;;;;;;;;23.00;42.40;;;;;;5125000;28;19924;-56
2022/01/04 12:28:43;;;;;;;;;;;23.00;42.50;;;;;;5119663;28;19930;-63
2022/01/04 12:31:24;;;;;;;;;;;23.00;42.70;;;;;;5100115;28;20333;-62
2022/01/04 12:33:54;;;;;;;;;;;22.80;43.00;;;;;;5124713;28;19924;-61
2022/01/04 12:36:22;;;;;;;;;;;23.00;42.70;;;;;;5119600;28;20095;-61
2022/01/04 12:38:48;;;;;;;;;;;22.80;43.10;;;;;;5119949;28;19932;-59
2022/01/04 12:41:15;;;;;;;;;;;23.00;42.80;;;;;;5125412;28;20348;-58
2022/01/04 12:43:40;;;;;;;;;;;22.90;42.70;;;;;;5119735;28;19923;-62
2022/01/04 12:46:07;;;;;;;;;;;23.00;42.80;;;;;;5123976;28;22363;-61
2022/01/04 12:48:46;;;;;;;;;;;23.10;42.50;;;;;;5119268;28;19923;-60
2022/01/04 12:51:31;;;;;;;;;;;22.80;43.00;;;;;;5119703;28;19927;-60
2022/01/04 12:54:01;;;;;;;;;;;23.10;42.30;;;;;;5106130;28;19930;-61
2022/01/04 12:56:27;;;;;;;;;;;23.00;42.40;;;;;;5119492;28;19927;-60
2022/01/04 12:58:53;;;;;;;;;;;23.00;42.40;;;;;;5119433;28;19930;-61
2022/01/04 13:01:22;;;;;;;;;;;22.90;42.70;;;;;;5124733;28;19923;-62
2022/01/04 13:03:48;;;;;;;;;;;23.20;42.20;;;;;;5120730;27;19931;-62
2022/01/04 13:06:14;;;;;;;;;;;23.00;42.50;;;;;;5122793;28;19963;-61
2022/01/04 13:08:40;;;;;;;;;;;23.30;42.00;;;;;;5128192;28;19931;-60
2022/01/04 13:11:06;;;;;;;;;;;22.90;42.70;;;;;;5122358;28;19927;-62
2022/01/04 13:13:32;;;;;;;;;;;23.30;41.90;;;;;;5125220;28;20030;-61
2022/01/04 13:16:16;;;;;;;;;;;22.80;43.00;;;;;;5125440;28;19924;-62
2022/01/04 13:18:42;;;;;;;;;;;23.00;42.70;;;;;;5122849;28;20351;-61
2022/01/04 13:21:08;;;;;;;;;;;22.80;43.10;;;;;;5127970;28;19937;-64
2022/01/04 13:23:37;;;;;;;;;;;23.10;42.80;;;;;;5122464;28;19924;-62
2022/01/04 13:26:03;;;;;;;;;;;22.70;43.50;;;;;;5122139;28;19976;-62
2022/01/04 13:28:29;;;;;;;;;;;23.00;43.10;;;;;;5109167;28;19924;-64
2022/01/04 13:30:54;;;;;;;;;;;22.80;43.70;;;;;;5121782;28;19923;-64
2022/01/04 13:33:23;;;;;;;;;;;23.00;43.20;;;;;;5122515;28;19972;-62
2022/01/04 13:35:49;;;;;;;;;;;22.90;43.50;;;;;;5127523;28;19931;-62
2022/01/04 13:38:20;;;;;;;;;;;22.90;43.70;;;;;;5104450;28;19934;-61
2022/01/04 13:40:46;;;;;;;;;;;23.00;43.30;;;;;;5122282;28;19923;-63
2022/01/04 13:43:12;;;;;;;;;;;22.90;43.80;;;;;;5127699;28;20022;-63
2022/01/04 13:45:45;;;;;;;;;;;22.90;43.90;;;;;;5121854;28;19966;-56
2022/01/04 13:48:10;;;;;;;;;;;22.90;43.80;;;;;;5127075;28;19927;-61
2022/01/04 13:50:37;;;;;;;;;;;23.10;43.40;;;;;;5122033;28;19923;-57
2022/01/04 13:53:06;;;;;;;;;;;22.80;44.20;;;;;;5122144;28;19924;-61
2022/01/04 13:55:48;;;;;;;;;;;23.00;43.80;;;;;;5127372;28;20021;-60
2022/01/04 13:58:29;;;;;;;;;;;22.80;44.30;;;;;;5121836;28;19927;-63
2022/01/04 14:00:55;;;;;;;;;;;23.10;43.60;;;;;;5121907;28;19931;-59
2022/01/04 14:03:28;;;;;;;;;;;22.90;43.90;;;;;;5127064;28;19930;-62
2022/01/04 14:05:55;;;;;;;;;;;23.10;43.70;;;;;;5121479;28;20330;-60
2022/01/04 14:08:21;;;;;;;;;;;22.90;43.90;;;;;;5121468;28;19938;-61
2022/01/04 14:10:47;;;;;;;;;;;22.80;42.60;;;;;;5127349;28;19923;-62
2022/01/04 14:13:29;;;;;;;;;;;22.80;42.30;;;;;;5121671;28;19924;-62
2022/01/04 14:16:11;;;;;;;;;;;22.90;40.80;;;;;;5121049;27;20661;-60
2022/01/04 14:18:37;;;;;;;;;;;22.70;40.60;;;;;;5127051;28;20014;-59
2022/01/04 14:21:02;;;;;;;;;;;23.00;39.40;;;;;;5121347;28;19972;-60
2022/01/04 14:23:35;;;;;;;;;;;23.00;38.90;;;;;;5121494;28;20215;-61
2022/01/04 14:26:04;;;;;;;;;;;23.10;38.70;;;;;;5126315;28;19923;-57
2022/01/04 14:28:30;;;;;;;;;;;22.90;38.80;;;;;;5121579;28;19927;-59
2022/01/04 14:30:56;;;;;;;;;;;23.00;38.50;;;;;;5124703;28;19930;-59
2022/01/04 14:33:21;;;;;;;;;;;22.80;38.50;;;;;;5105331;28;19927;-58